sensor_id;sensor_type;location;lat;lon;timestamp;P1;durP1;ratioP1;P2;durP2;ratioP2
70312;SDS011;57723;51.698;5.344;2022-11-15T00:01:28;6.37;;;2.97;;
70312;SDS011;57723;51.698;5.344;2022-11-15T00:03:54;5.20;;;2.72;;
70312;SDS011;57723;51.698;5.344;2022-11-15T00:06:19;5.93;;;2.37;;
70312;SDS011;57723;51.698;5.344;2022-11-15T00:08:44;5.50;;;2.80;;
70312;SDS011;57723;51.698;5.344;2022-11-15T00:11:12;5.53;;;2.47;;
70312;SDS011;57723;51.698;5.344;2022-11-15T00:13:38;5.25;;;2.60;;
70312;SDS011;57723;51.698;5.344;2022-11-15T00:16:04;6.67;;;2.60;;
70312;SDS011;57723;51.698;5.344;2022-11-15T00:18:29;7.80;;;3.00;;
70312;SDS011;57723;51.698;5.344;2022-11-15T00:20:55;4.97;;;2.38;;
70312;SDS011;57723;51.698;5.344;2022-11-15T00:23:20;6.13;;;2.80;;
70312;SDS011;57723;51.698;5.344;2022-11-15T00:25:45;7.50;;;2.50;;
70312;SDS011;57723;51.698;5.344;2022-11-15T00:28:10;5.33;;;2.70;;
70312;SDS011;57723;51.698;5.344;2022-11-15T00:30:35;8.43;;;2.90;;
70312;SDS011;57723;51.698;5.344;2022-11-15T00:33:04;5.13;;;2.70;;
70312;SDS011;57723;51.698;5.344;2022-11-15T00:35:33;6.05;;;2.63;;
70312;SDS011;57723;51.698;5.344;2022-11-15T00:37:58;4.80;;;2.33;;
70312;SDS011;57723;51.698;5.344;2022-11-15T00:40:23;4.90;;;2.45;;
70312;SDS011;57723;51.698;5.344;2022-11-15T00:42:48;7.15;;;2.60;;
70312;SDS011;57723;51.698;5.344;2022-11-15T00:45:14;5.57;;;2.70;;
70312;SDS011;57723;51.698;5.344;2022-11-15T00:47:39;6.20;;;2.30;;
70312;SDS011;57723;51.698;5.344;2022-11-15T00:50:04;6.60;;;3.10;;
70312;SDS011;57723;51.698;5.344;2022-11-15T00:52:29;4.80;;;2.47;;
70312;SDS011;57723;51.698;5.344;2022-11-15T00:54:54;6.67;;;2.57;;
70312;SDS011;57723;51.698;5.344;2022-11-15T00:57:20;6.03;;;2.60;;
70312;SDS011;57723;51.698;5.344;2022-11-15T00:59:45;6.80;;;2.40;;
70312;SDS011;57723;51.698;5.344;2022-11-15T01:02:10;6.50;;;2.87;;
70312;SDS011;57723;51.698;5.344;2022-11-15T01:04:35;3.93;;;2.40;;
70312;SDS011;57723;51.698;5.344;2022-11-15T01:07:00;5.17;;;2.43;;
70312;SDS011;57723;51.698;5.344;2022-11-15T01:09:25;6.00;;;2.27;;
70312;SDS011;57723;51.698;5.344;2022-11-15T01:11:51;4.20;;;2.20;;
70312;SDS011;57723;51.698;5.344;2022-11-15T01:14:16;5.47;;;2.50;;
70312;SDS011;57723;51.698;5.344;2022-11-15T01:16:42;4.83;;;2.60;;
70312;SDS011;57723;51.698;5.344;2022-11-15T01:19:07;8.60;;;2.87;;
70312;SDS011;57723;51.698;5.344;2022-11-15T01:21:32;5.83;;;2.60;;
70312;SDS011;57723;51.698;5.344;2022-11-15T01:24:00;5.85;;;2.30;;
70312;SDS011;57723;51.698;5.344;2022-11-15T01:26:25;6.77;;;2.60;;
70312;SDS011;57723;51.698;5.344;2022-11-15T01:28:50;7.00;;;2.33;;
70312;SDS011;57723;51.698;5.344;2022-11-15T01:31:17;4.40;;;2.40;;
70312;SDS011;57723;51.698;5.344;2022-11-15T01:33:43;6.10;;;3.03;;
70312;SDS011;57723;51.698;5.344;2022-11-15T01:36:10;6.50;;;2.47;;
70312;SDS011;57723;51.698;5.344;2022-11-15T01:38:36;4.50;;;2.50;;
70312;SDS011;57723;51.698;5.344;2022-11-15T01:41:01;5.27;;;2.80;;
70312;SDS011;57723;51.698;5.344;2022-11-15T01:43:30;7.53;;;2.30;;
70312;SDS011;57723;51.698;5.344;2022-11-15T01:48:32;9.13;;;2.40;;
70312;SDS011;57723;51.698;5.344;2022-11-15T01:50:59;5.33;;;2.30;;
70312;SDS011;57723;51.698;5.344;2022-11-15T01:53:25;5.70;;;2.25;;
70312;SDS011;57723;51.698;5.344;2022-11-15T01:55:50;6.40;;;2.70;;
70312;SDS011;57723;51.698;5.344;2022-11-15T01:58:16;6.80;;;2.83;;
70312;SDS011;57723;51.698;5.344;2022-11-15T02:00:41;5.17;;;2.47;;
70312;SDS011;57723;51.698;5.344;2022-11-15T02:03:06;4.83;;;2.20;;
70312;SDS011;57723;51.698;5.344;2022-11-15T02:05:32;6.90;;;2.33;;
70312;SDS011;57723;51.698;5.344;2022-11-15T02:07:57;4.33;;;2.30;;
70312;SDS011;57723;51.698;5.344;2022-11-15T02:10:27;5.60;;;2.60;;
70312;SDS011;57723;51.698;5.344;2022-11-15T02:12:52;4.32;;;2.40;;
70312;SDS011;57723;51.698;5.344;2022-11-15T02:15:17;4.90;;;2.47;;
70312;SDS011;57723;51.698;5.344;2022-11-15T02:23:20;4.10;;;2.17;;
70312;SDS011;57723;51.698;5.344;2022-11-15T02:25:57;3.97;;;2.20;;
70312;SDS011;57723;51.698;5.344;2022-11-15T02:31:00;4.07;;;2.27;;
70312;SDS011;57723;51.698;5.344;2022-11-15T02:38:25;4.38;;;2.35;;
70312;SDS011;57723;51.698;5.344;2022-11-15T02:40:59;5.07;;;2.33;;
70312;SDS011;57723;51.698;5.344;2022-11-15T02:43:33;4.90;;;2.50;;
70312;SDS011;57723;51.698;5.344;2022-11-15T02:46:27;3.73;;;1.83;;
70312;SDS011;57723;51.698;5.344;2022-11-15T02:49:15;5.63;;;2.50;;
70312;SDS011;57723;51.698;5.344;2022-11-15T02:51:41;4.80;;;2.10;;
70312;SDS011;57723;51.698;5.344;2022-11-15T02:54:15;4.07;;;2.40;;
70312;SDS011;57723;51.698;5.344;2022-11-15T02:56:43;5.63;;;2.40;;
70312;SDS011;57723;51.698;5.344;2022-11-15T02:59:13;5.13;;;2.22;;
70312;SDS011;57723;51.698;5.344;2022-11-15T03:02:06;4.70;;;2.03;;
70312;SDS011;57723;51.698;5.344;2022-11-15T03:09:31;5.13;;;2.20;;
70312;SDS011;57723;51.698;5.344;2022-11-15T03:12:03;4.13;;;2.30;;
70312;SDS011;57723;51.698;5.344;2022-11-15T03:14:39;4.43;;;2.20;;
70312;SDS011;57723;51.698;5.344;2022-11-15T03:17:12;3.80;;;2.15;;
70312;SDS011;57723;51.698;5.344;2022-11-15T03:19:53;3.63;;;2.00;;
70312;SDS011;57723;51.698;5.344;2022-11-15T03:22:20;5.35;;;2.28;;
70312;SDS011;57723;51.698;5.344;2022-11-15T03:24:46;3.57;;;2.03;;
70312;SDS011;57723;51.698;5.344;2022-11-15T03:27:13;3.58;;;2.00;;
70312;SDS011;57723;51.698;5.344;2022-11-15T03:29:39;5.97;;;2.13;;
70312;SDS011;57723;51.698;5.344;2022-11-15T03:32:07;4.22;;;2.30;;
70312;SDS011;57723;51.698;5.344;2022-11-15T03:34:38;3.95;;;2.08;;
70312;SDS011;57723;51.698;5.344;2022-11-15T03:37:05;3.93;;;2.30;;
70312;SDS011;57723;51.698;5.344;2022-11-15T03:39:30;10.35;;;2.00;;
70312;SDS011;57723;51.698;5.344;2022-11-15T03:42:04;5.93;;;2.40;;
70312;SDS011;57723;51.698;5.344;2022-11-15T03:44:46;3.67;;;2.10;;
70312;SDS011;57723;51.698;5.344;2022-11-15T03:47:16;4.22;;;2.20;;
70312;SDS011;57723;51.698;5.344;2022-11-15T03:49:44;4.28;;;2.10;;
70312;SDS011;57723;51.698;5.344;2022-11-15T03:52:10;3.73;;;2.10;;
70312;SDS011;57723;51.698;5.344;2022-11-15T03:54:35;4.30;;;2.20;;
70312;SDS011;57723;51.698;5.344;2022-11-15T03:57:00;3.30;;;2.20;;
70312;SDS011;57723;51.698;5.344;2022-11-15T03:59:25;5.45;;;2.05;;
70312;SDS011;57723;51.698;5.344;2022-11-15T04:01:51;4.47;;;2.17;;
70312;SDS011;57723;51.698;5.344;2022-11-15T04:04:16;3.60;;;1.70;;
70312;SDS011;57723;51.698;5.344;2022-11-15T04:06:41;5.90;;;2.15;;
70312;SDS011;57723;51.698;5.344;2022-11-15T04:09:06;4.63;;;2.03;;
70312;SDS011;57723;51.698;5.344;2022-11-15T04:11:31;3.50;;;1.90;;
70312;SDS011;57723;51.698;5.344;2022-11-15T04:13:57;5.00;;;2.10;;
70312;SDS011;57723;51.698;5.344;2022-11-15T04:16:22;5.30;;;2.30;;
70312;SDS011;57723;51.698;5.344;2022-11-15T04:18:47;5.95;;;2.25;;
70312;SDS011;57723;51.698;5.344;2022-11-15T04:21:35;3.97;;;2.10;;
70312;SDS011;57723;51.698;5.344;2022-11-15T04:24:39;3.90;;;1.80;;
70312;SDS011;57723;51.698;5.344;2022-11-15T04:27:04;4.80;;;2.40;;
70312;SDS011;57723;51.698;5.344;2022-11-15T04:29:29;3.73;;;2.00;;
70312;SDS011;57723;51.698;5.344;2022-11-15T04:32:04;4.05;;;1.90;;
70312;SDS011;57723;51.698;5.344;2022-11-15T04:34:30;3.70;;;2.10;;
70312;SDS011;57723;51.698;5.344;2022-11-15T04:36:55;4.20;;;1.97;;
70312;SDS011;57723;51.698;5.344;2022-11-15T04:39:41;5.47;;;2.20;;
70312;SDS011;57723;51.698;5.344;2022-11-15T04:42:06;3.70;;;1.83;;
70312;SDS011;57723;51.698;5.344;2022-11-15T04:44:32;5.63;;;2.23;;
70312;SDS011;57723;51.698;5.344;2022-11-15T04:46:57;4.23;;;2.00;;
70312;SDS011;57723;51.698;5.344;2022-11-15T04:49:22;4.05;;;2.10;;
70312;SDS011;57723;51.698;5.344;2022-11-15T04:51:47;4.70;;;2.20;;
70312;SDS011;57723;51.698;5.344;2022-11-15T04:54:13;4.88;;;2.22;;
70312;SDS011;57723;51.698;5.344;2022-11-15T04:56:38;4.15;;;1.80;;
70312;SDS011;57723;51.698;5.344;2022-11-15T04:59:03;3.10;;;1.73;;
70312;SDS011;57723;51.698;5.344;2022-11-15T05:01:38;3.97;;;1.98;;
70312;SDS011;57723;51.698;5.344;2022-11-15T05:04:03;3.33;;;1.63;;
70312;SDS011;57723;51.698;5.344;2022-11-15T05:06:47;4.05;;;1.75;;
70312;SDS011;57723;51.698;5.344;2022-11-15T05:09:13;3.83;;;1.87;;
70312;SDS011;57723;51.698;5.344;2022-11-15T05:11:38;4.95;;;2.13;;
70312;SDS011;57723;51.698;5.344;2022-11-15T05:14:04;7.20;;;2.00;;
70312;SDS011;57723;51.698;5.344;2022-11-15T05:16:29;4.03;;;2.10;;
70312;SDS011;57723;51.698;5.344;2022-11-15T05:18:54;2.93;;;1.80;;
70312;SDS011;57723;51.698;5.344;2022-11-15T05:21:20;4.43;;;2.10;;
70312;SDS011;57723;51.698;5.344;2022-11-15T05:23:45;4.83;;;1.70;;
70312;SDS011;57723;51.698;5.344;2022-11-15T05:26:17;3.67;;;1.80;;
70312;SDS011;57723;51.698;5.344;2022-11-15T05:28:45;4.43;;;2.15;;
70312;SDS011;57723;51.698;5.344;2022-11-15T05:31:34;5.85;;;2.10;;
70312;SDS011;57723;51.698;5.344;2022-11-15T05:34:10;3.63;;;1.80;;
70312;SDS011;57723;51.698;5.344;2022-11-15T05:36:36;4.15;;;2.00;;
70312;SDS011;57723;51.698;5.344;2022-11-15T05:39:06;3.60;;;2.03;;
70312;SDS011;57723;51.698;5.344;2022-11-15T05:41:44;3.75;;;1.92;;
70312;SDS011;57723;51.698;5.344;2022-11-15T05:44:14;4.15;;;2.00;;
70312;SDS011;57723;51.698;5.344;2022-11-15T05:46:45;4.03;;;2.13;;
70312;SDS011;57723;51.698;5.344;2022-11-15T05:49:23;3.92;;;2.30;;
70312;SDS011;57723;51.698;5.344;2022-11-15T05:51:50;3.65;;;1.90;;
70312;SDS011;57723;51.698;5.344;2022-11-15T05:54:22;4.75;;;2.10;;
70312;SDS011;57723;51.698;5.344;2022-11-15T05:56:50;3.70;;;2.10;;
70312;SDS011;57723;51.698;5.344;2022-11-15T05:59:27;3.20;;;1.83;;
70312;SDS011;57723;51.698;5.344;2022-11-15T06:02:00;4.90;;;2.10;;
70312;SDS011;57723;51.698;5.344;2022-11-15T06:04:29;3.83;;;2.03;;
70312;SDS011;57723;51.698;5.344;2022-11-15T06:06:58;3.35;;;1.85;;
70312;SDS011;57723;51.698;5.344;2022-11-15T06:09:23;3.45;;;1.77;;
70312;SDS011;57723;51.698;5.344;2022-11-15T06:11:52;4.47;;;2.05;;
70312;SDS011;57723;51.698;5.344;2022-11-15T06:14:19;3.40;;;1.85;;
70312;SDS011;57723;51.698;5.344;2022-11-15T06:16:48;3.37;;;1.77;;
70312;SDS011;57723;51.698;5.344;2022-11-15T06:19:13;4.65;;;2.05;;
70312;SDS011;57723;51.698;5.344;2022-11-15T06:21:39;4.47;;;2.00;;
70312;SDS011;57723;51.698;5.344;2022-11-15T06:24:16;3.58;;;1.90;;
70312;SDS011;57723;51.698;5.344;2022-11-15T06:26:52;4.90;;;1.97;;
70312;SDS011;57723;51.698;5.344;2022-11-15T06:29:22;4.05;;;2.03;;
70312;SDS011;57723;51.698;5.344;2022-11-15T06:31:48;4.70;;;1.70;;
70312;SDS011;57723;51.698;5.344;2022-11-15T06:34:13;4.73;;;2.20;;
70312;SDS011;57723;51.698;5.344;2022-11-15T06:36:38;4.97;;;2.10;;
70312;SDS011;57723;51.698;5.344;2022-11-15T06:39:04;8.15;;;2.45;;
70312;SDS011;57723;51.698;5.344;2022-11-15T06:41:36;5.17;;;2.00;;
70312;SDS011;57723;51.698;5.344;2022-11-15T06:44:09;6.38;;;2.20;;
70312;SDS011;57723;51.698;5.344;2022-11-15T06:46:46;5.78;;;2.38;;
70312;SDS011;57723;51.698;5.344;2022-11-15T06:55:09;6.03;;;2.50;;
70312;SDS011;57723;51.698;5.344;2022-11-15T06:57:37;6.75;;;2.40;;
70312;SDS011;57723;51.698;5.344;2022-11-15T07:00:03;4.90;;;2.58;;
70312;SDS011;57723;51.698;5.344;2022-11-15T07:02:40;7.05;;;2.70;;
70312;SDS011;57723;51.698;5.344;2022-11-15T07:05:05;6.75;;;2.58;;
70312;SDS011;57723;51.698;5.344;2022-11-15T07:07:36;4.00;;;2.20;;
70312;SDS011;57723;51.698;5.344;2022-11-15T07:12:53;6.10;;;2.33;;
70312;SDS011;57723;51.698;5.344;2022-11-15T07:15:21;4.18;;;2.10;;
70312;SDS011;57723;51.698;5.344;2022-11-15T07:18:10;4.80;;;2.28;;
70312;SDS011;57723;51.698;5.344;2022-11-15T07:20:35;4.90;;;2.37;;
70312;SDS011;57723;51.698;5.344;2022-11-15T07:23:01;5.70;;;2.47;;
70312;SDS011;57723;51.698;5.344;2022-11-15T07:25:29;5.25;;;2.80;;
70312;SDS011;57723;51.698;5.344;2022-11-15T07:27:56;6.07;;;2.77;;
70312;SDS011;57723;51.698;5.344;2022-11-15T07:31:06;6.82;;;2.78;;
70312;SDS011;57723;51.698;5.344;2022-11-15T07:33:50;5.15;;;2.42;;
70312;SDS011;57723;51.698;5.344;2022-11-15T07:36:38;5.03;;;2.50;;
70312;SDS011;57723;51.698;5.344;2022-11-15T07:39:09;7.60;;;2.38;;
70312;SDS011;57723;51.698;5.344;2022-11-15T07:44:50;6.30;;;2.30;;
70312;SDS011;57723;51.698;5.344;2022-11-15T07:50:30;5.00;;;2.37;;
70312;SDS011;57723;51.698;5.344;2022-11-15T07:53:03;5.03;;;2.40;;
70312;SDS011;57723;51.698;5.344;2022-11-15T07:55:29;5.50;;;2.40;;
70312;SDS011;57723;51.698;5.344;2022-11-15T08:00:46;7.43;;;2.65;;
70312;SDS011;57723;51.698;5.344;2022-11-15T08:03:12;5.03;;;2.70;;
70312;SDS011;57723;51.698;5.344;2022-11-15T08:05:42;4.55;;;2.25;;
70312;SDS011;57723;51.698;5.344;2022-11-15T08:08:13;4.82;;;2.60;;
70312;SDS011;57723;51.698;5.344;2022-11-15T08:10:41;6.27;;;2.50;;
70312;SDS011;57723;51.698;5.344;2022-11-15T08:13:16;5.65;;;2.45;;
70312;SDS011;57723;51.698;5.344;2022-11-15T08:16:03;7.18;;;2.40;;
70312;SDS011;57723;51.698;5.344;2022-11-15T08:18:30;3.90;;;2.28;;
70312;SDS011;57723;51.698;5.344;2022-11-15T08:21:10;5.72;;;2.80;;
70312;SDS011;57723;51.698;5.344;2022-11-15T08:26:25;6.53;;;2.80;;
70312;SDS011;57723;51.698;5.344;2022-11-15T08:29:01;6.13;;;2.92;;
70312;SDS011;57723;51.698;5.344;2022-11-15T08:31:31;6.20;;;2.50;;
70312;SDS011;57723;51.698;5.344;2022-11-15T08:33:57;5.35;;;2.53;;
70312;SDS011;57723;51.698;5.344;2022-11-15T08:36:40;5.30;;;2.83;;
70312;SDS011;57723;51.698;5.344;2022-11-15T08:39:15;4.53;;;2.40;;
70312;SDS011;57723;51.698;5.344;2022-11-15T08:41:40;6.22;;;2.60;;
70312;SDS011;57723;51.698;5.344;2022-11-15T08:44:10;6.15;;;2.88;;
70312;SDS011;57723;51.698;5.344;2022-11-15T08:46:40;4.90;;;2.70;;
70312;SDS011;57723;51.698;5.344;2022-11-15T08:49:10;5.05;;;2.75;;
70312;SDS011;57723;51.698;5.344;2022-11-15T08:51:49;4.80;;;2.70;;
70312;SDS011;57723;51.698;5.344;2022-11-15T08:54:15;4.90;;;2.90;;
70312;SDS011;57723;51.698;5.344;2022-11-15T08:56:48;5.05;;;2.65;;
70312;SDS011;57723;51.698;5.344;2022-11-15T08:59:13;4.93;;;2.80;;
70312;SDS011;57723;51.698;5.344;2022-11-15T09:01:41;5.90;;;2.50;;
70312;SDS011;57723;51.698;5.344;2022-11-15T09:04:06;6.77;;;2.57;;
70312;SDS011;57723;51.698;5.344;2022-11-15T09:06:31;4.50;;;2.30;;
70312;SDS011;57723;51.698;5.344;2022-11-15T09:08:56;7.20;;;2.97;;
70312;SDS011;57723;51.698;5.344;2022-11-15T09:11:22;5.30;;;2.67;;
70312;SDS011;57723;51.698;5.344;2022-11-15T09:13:48;5.17;;;3.00;;
70312;SDS011;57723;51.698;5.344;2022-11-15T09:16:13;4.68;;;2.67;;
70312;SDS011;57723;51.698;5.344;2022-11-15T09:18:40;4.68;;;2.60;;
70312;SDS011;57723;51.698;5.344;2022-11-15T09:21:08;4.63;;;2.60;;
70312;SDS011;57723;51.698;5.344;2022-11-15T09:23:34;4.70;;;2.50;;
70312;SDS011;57723;51.698;5.344;2022-11-15T09:26:00;4.60;;;2.60;;
70312;SDS011;57723;51.698;5.344;2022-11-15T09:28:26;5.55;;;2.55;;
70312;SDS011;57723;51.698;5.344;2022-11-15T09:30:51;6.30;;;2.67;;
70312;SDS011;57723;51.698;5.344;2022-11-15T09:33:16;4.17;;;2.60;;
70312;SDS011;57723;51.698;5.344;2022-11-15T09:35:41;5.15;;;2.85;;
70312;SDS011;57723;51.698;5.344;2022-11-15T09:38:07;4.33;;;2.60;;
70312;SDS011;57723;51.698;5.344;2022-11-15T09:40:32;5.00;;;2.90;;
70312;SDS011;57723;51.698;5.344;2022-11-15T09:48:00;4.47;;;2.40;;
70312;SDS011;57723;51.698;5.344;2022-11-15T09:50:32;5.22;;;2.53;;
70312;SDS011;57723;51.698;5.344;2022-11-15T09:53:00;3.97;;;2.65;;
70312;SDS011;57723;51.698;5.344;2022-11-15T09:55:29;5.10;;;2.70;;
70312;SDS011;57723;51.698;5.344;2022-11-15T10:00:50;4.88;;;2.75;;
70312;SDS011;57723;51.698;5.344;2022-11-15T10:03:23;4.10;;;2.20;;
70312;SDS011;57723;51.698;5.344;2022-11-15T10:05:50;5.07;;;2.45;;
70312;SDS011;57723;51.698;5.344;2022-11-15T10:10:42;5.40;;;2.60;;
70312;SDS011;57723;51.698;5.344;2022-11-15T10:13:26;4.03;;;2.30;;
70312;SDS011;57723;51.698;5.344;2022-11-15T10:15:54;5.50;;;2.55;;
70312;SDS011;57723;51.698;5.344;2022-11-15T10:21:32;4.53;;;2.45;;
70312;SDS011;57723;51.698;5.344;2022-11-15T10:23:51;4.57;;;2.35;;
70312;SDS011;57723;51.698;5.344;2022-11-15T10:26:17;6.78;;;2.50;;
70312;SDS011;57723;51.698;5.344;2022-11-15T10:28:42;4.50;;;2.50;;
70312;SDS011;57723;51.698;5.344;2022-11-15T10:31:21;4.20;;;2.20;;
70312;SDS011;57723;51.698;5.344;2022-11-15T10:33:47;4.53;;;2.55;;
70312;SDS011;57723;51.698;5.344;2022-11-15T10:47:20;4.45;;;2.00;;
70312;SDS011;57723;51.698;5.344;2022-11-15T10:52:54;4.70;;;2.30;;
70312;SDS011;57723;51.698;5.344;2022-11-15T10:55:33;5.03;;;2.22;;
70312;SDS011;57723;51.698;5.344;2022-11-15T10:58:05;4.28;;;2.00;;
70312;SDS011;57723;51.698;5.344;2022-11-15T11:00:33;4.35;;;2.10;;
70312;SDS011;57723;51.698;5.344;2022-11-15T11:03:00;4.15;;;2.38;;
70312;SDS011;57723;51.698;5.344;2022-11-15T11:05:36;4.00;;;2.00;;
70312;SDS011;57723;51.698;5.344;2022-11-15T11:10:54;4.22;;;1.90;;
70312;SDS011;57723;51.698;5.344;2022-11-15T11:27:07;3.63;;;1.80;;
70312;SDS011;57723;51.698;5.344;2022-11-15T11:48:56;4.65;;;1.88;;
70312;SDS011;57723;51.698;5.344;2022-11-15T11:51:31;4.40;;;1.93;;
70312;SDS011;57723;51.698;5.344;2022-11-15T11:56:25;2.97;;;1.65;;
70312;SDS011;57723;51.698;5.344;2022-11-15T11:58:52;2.85;;;1.70;;
70312;SDS011;57723;51.698;5.344;2022-11-15T12:01:25;3.33;;;1.80;;
70312;SDS011;57723;51.698;5.344;2022-11-15T12:06:21;3.90;;;1.80;;
70312;SDS011;57723;51.698;5.344;2022-11-15T12:08:58;3.63;;;2.08;;
70312;SDS011;57723;51.698;5.344;2022-11-15T12:11:29;3.42;;;1.80;;
70312;SDS011;57723;51.698;5.344;2022-11-15T12:13:56;3.13;;;1.60;;
70312;SDS011;57723;51.698;5.344;2022-11-15T12:16:23;2.90;;;1.60;;
70312;SDS011;57723;51.698;5.344;2022-11-15T12:18:52;4.00;;;1.57;;
70312;SDS011;57723;51.698;5.344;2022-11-15T12:24:03;3.10;;;1.67;;
70312;SDS011;57723;51.698;5.344;2022-11-15T12:26:34;3.42;;;1.67;;
70312;SDS011;57723;51.698;5.344;2022-11-15T12:29:06;3.65;;;1.63;;
70312;SDS011;57723;51.698;5.344;2022-11-15T12:34:00;3.95;;;1.60;;
70312;SDS011;57723;51.698;5.344;2022-11-15T12:39:14;2.72;;;1.50;;
70312;SDS011;57723;51.698;5.344;2022-11-15T12:47:31;3.93;;;1.70;;
70312;SDS011;57723;51.698;5.344;2022-11-15T12:50:02;2.75;;;1.30;;
70312;SDS011;57723;51.698;5.344;2022-11-15T12:52:35;3.75;;;1.58;;
70312;SDS011;57723;51.698;5.344;2022-11-15T12:55:00;3.37;;;1.60;;
70312;SDS011;57723;51.698;5.344;2022-11-15T12:57:36;3.22;;;1.42;;
70312;SDS011;57723;51.698;5.344;2022-11-15T13:02:53;2.73;;;1.30;;
70312;SDS011;57723;51.698;5.344;2022-11-15T13:08:08;2.83;;;1.50;;
70312;SDS011;57723;51.698;5.344;2022-11-15T13:10:34;3.33;;;1.50;;
70312;SDS011;57723;51.698;5.344;2022-11-15T13:13:08;3.55;;;1.50;;
70312;SDS011;57723;51.698;5.344;2022-11-15T13:21:22;4.10;;;1.50;;
70312;SDS011;57723;51.698;5.344;2022-11-15T13:24:24;2.63;;;1.30;;
70312;SDS011;57723;51.698;5.344;2022-11-15T13:26:54;2.70;;;1.40;;
70312;SDS011;57723;51.698;5.344;2022-11-15T13:29:22;2.47;;;1.20;;
70312;SDS011;57723;51.698;5.344;2022-11-15T13:34:43;3.83;;;1.48;;
70312;SDS011;57723;51.698;5.344;2022-11-15T13:40:08;2.40;;;1.30;;
70312;SDS011;57723;51.698;5.344;2022-11-15T13:42:35;2.90;;;1.10;;
70312;SDS011;57723;51.698;5.344;2022-11-15T13:45:02;2.73;;;1.23;;
70312;SDS011;57723;51.698;5.344;2022-11-15T13:47:29;3.30;;;1.63;;
70312;SDS011;57723;51.698;5.344;2022-11-15T13:49:58;3.00;;;1.40;;
70312;SDS011;57723;51.698;5.344;2022-11-15T13:52:35;3.65;;;1.42;;
70312;SDS011;57723;51.698;5.344;2022-11-15T13:55:03;3.05;;;1.30;;
70312;SDS011;57723;51.698;5.344;2022-11-15T13:58:14;2.83;;;1.30;;
70312;SDS011;57723;51.698;5.344;2022-11-15T14:00:25;2.28;;;1.20;;
70312;SDS011;57723;51.698;5.344;2022-11-15T14:02:50;2.95;;;1.40;;
70312;SDS011;57723;51.698;5.344;2022-11-15T14:05:17;2.33;;;1.40;;
70312;SDS011;57723;51.698;5.344;2022-11-15T14:07:59;2.90;;;1.20;;
70312;SDS011;57723;51.698;5.344;2022-11-15T14:12:50;4.00;;;1.30;;
70312;SDS011;57723;51.698;5.344;2022-11-15T14:17:44;2.73;;;1.40;;
70312;SDS011;57723;51.698;5.344;2022-11-15T14:22:58;2.67;;;1.23;;
70312;SDS011;57723;51.698;5.344;2022-11-15T14:25:33;6.53;;;1.33;;
70312;SDS011;57723;51.698;5.344;2022-11-15T14:30:43;2.40;;;1.03;;
70312;SDS011;57723;51.698;5.344;2022-11-15T14:33:17;3.38;;;1.27;;
70312;SDS011;57723;51.698;5.344;2022-11-15T14:35:43;4.70;;;1.38;;
70312;SDS011;57723;51.698;5.344;2022-11-15T14:38:08;5.30;;;1.27;;
70312;SDS011;57723;51.698;5.344;2022-11-15T14:40:33;3.80;;;1.30;;
70312;SDS011;57723;51.698;5.344;2022-11-15T14:42:58;3.50;;;1.17;;
70312;SDS011;57723;51.698;5.344;2022-11-15T14:45:26;6.50;;;1.40;;
70312;SDS011;57723;51.698;5.344;2022-11-15T14:47:52;4.25;;;1.70;;
70312;SDS011;57723;51.698;5.344;2022-11-15T14:50:17;6.00;;;1.30;;
70312;SDS011;57723;51.698;5.344;2022-11-15T14:52:43;5.07;;;1.45;;
70312;SDS011;57723;51.698;5.344;2022-11-15T14:55:22;3.60;;;1.23;;
70312;SDS011;57723;51.698;5.344;2022-11-15T14:57:48;4.13;;;1.50;;
70312;SDS011;57723;51.698;5.344;2022-11-15T15:00:13;5.55;;;1.42;;
70312;SDS011;57723;51.698;5.344;2022-11-15T15:02:40;3.87;;;1.20;;
70312;SDS011;57723;51.698;5.344;2022-11-15T15:05:13;2.50;;;1.25;;
70312;SDS011;57723;51.698;5.344;2022-11-15T15:07:38;4.45;;;1.40;;
70312;SDS011;57723;51.698;5.344;2022-11-15T15:10:03;3.33;;;1.20;;
70312;SDS011;57723;51.698;5.344;2022-11-15T15:12:29;3.50;;;1.30;;
70312;SDS011;57723;51.698;5.344;2022-11-15T15:14:55;8.35;;;1.40;;
70312;SDS011;57723;51.698;5.344;2022-11-15T15:17:20;4.67;;;1.40;;
70312;SDS011;57723;51.698;5.344;2022-11-15T15:19:45;3.53;;;1.20;;
70312;SDS011;57723;51.698;5.344;2022-11-15T15:22:15;3.83;;;1.30;;
70312;SDS011;57723;51.698;5.344;2022-11-15T15:24:40;3.55;;;1.30;;
70312;SDS011;57723;51.698;5.344;2022-11-15T15:27:05;3.80;;;1.10;;
70312;SDS011;57723;51.698;5.344;2022-11-15T15:29:30;6.87;;;1.20;;
70312;SDS011;57723;51.698;5.344;2022-11-15T15:31:56;4.00;;;1.30;;
70312;SDS011;57723;51.698;5.344;2022-11-15T15:34:21;2.80;;;1.10;;
70312;SDS011;57723;51.698;5.344;2022-11-15T15:36:46;3.63;;;1.03;;
70312;SDS011;57723;51.698;5.344;2022-11-15T15:39:12;1.70;;;1.00;;
70312;SDS011;57723;51.698;5.344;2022-11-15T15:41:37;4.23;;;1.20;;
70312;SDS011;57723;51.698;5.344;2022-11-15T15:44:02;3.47;;;1.10;;
70312;SDS011;57723;51.698;5.344;2022-11-15T15:46:27;2.10;;;1.00;;
70312;SDS011;57723;51.698;5.344;2022-11-15T15:48:52;4.93;;;1.10;;
70312;SDS011;57723;51.698;5.344;2022-11-15T15:51:18;4.60;;;1.40;;
70312;SDS011;57723;51.698;5.344;2022-11-15T15:53:43;3.07;;;1.13;;
70312;SDS011;57723;51.698;5.344;2022-11-15T15:56:08;3.03;;;1.30;;
70312;SDS011;57723;51.698;5.344;2022-11-15T15:58:34;2.70;;;1.10;;
70312;SDS011;57723;51.698;5.344;2022-11-15T16:00:59;3.70;;;1.10;;
70312;SDS011;57723;51.698;5.344;2022-11-15T16:03:24;3.63;;;1.27;;
70312;SDS011;57723;51.698;5.344;2022-11-15T16:05:49;6.23;;;1.30;;
70312;SDS011;57723;51.698;5.344;2022-11-15T16:08:24;3.17;;;1.00;;
70312;SDS011;57723;51.698;5.344;2022-11-15T16:10:49;4.70;;;1.40;;
70312;SDS011;57723;51.698;5.344;2022-11-15T16:13:15;3.83;;;1.10;;
70312;SDS011;57723;51.698;5.344;2022-11-15T16:15:40;3.20;;;1.33;;
70312;SDS011;57723;51.698;5.344;2022-11-15T16:18:08;2.88;;;1.00;;
70312;SDS011;57723;51.698;5.344;2022-11-15T16:23:03;2.97;;;1.00;;
70312;SDS011;57723;51.698;5.344;2022-11-15T16:25:48;3.97;;;1.20;;
70312;SDS011;57723;51.698;5.344;2022-11-15T16:28:29;3.17;;;1.10;;
70312;SDS011;57723;51.698;5.344;2022-11-15T16:31:10;4.13;;;1.17;;
70312;SDS011;57723;51.698;5.344;2022-11-15T16:33:37;3.40;;;1.20;;
70312;SDS011;57723;51.698;5.344;2022-11-15T16:36:31;3.30;;;1.00;;
70312;SDS011;57723;51.698;5.344;2022-11-15T16:38:59;2.08;;;0.98;;
70312;SDS011;57723;51.698;5.344;2022-11-15T16:41:36;3.90;;;1.10;;
70312;SDS011;57723;51.698;5.344;2022-11-15T16:44:03;2.27;;;1.20;;
70312;SDS011;57723;51.698;5.344;2022-11-15T16:46:32;8.63;;;1.80;;
70312;SDS011;57723;51.698;5.344;2022-11-15T16:49:11;3.40;;;1.20;;
70312;SDS011;57723;51.698;5.344;2022-11-15T16:51:55;4.50;;;1.23;;
70312;SDS011;57723;51.698;5.344;2022-11-15T16:54:24;3.40;;;1.20;;
70312;SDS011;57723;51.698;5.344;2022-11-15T16:56:51;3.10;;;1.10;;
70312;SDS011;57723;51.698;5.344;2022-11-15T16:59:18;3.72;;;1.20;;
70312;SDS011;57723;51.698;5.344;2022-11-15T17:01:44;3.07;;;1.17;;
70312;SDS011;57723;51.698;5.344;2022-11-15T17:04:18;3.42;;;1.10;;
70312;SDS011;57723;51.698;5.344;2022-11-15T17:09:53;3.90;;;1.05;;
70312;SDS011;57723;51.698;5.344;2022-11-15T17:12:27;3.80;;;1.23;;
70312;SDS011;57723;51.698;5.344;2022-11-15T17:15:04;2.60;;;1.10;;
70312;SDS011;57723;51.698;5.344;2022-11-15T17:20:21;3.75;;;1.58;;
70312;SDS011;57723;51.698;5.344;2022-11-15T17:22:47;2.92;;;1.17;;
70312;SDS011;57723;51.698;5.344;2022-11-15T17:25:13;3.67;;;1.10;;
70312;SDS011;57723;51.698;5.344;2022-11-15T17:30:36;2.00;;;1.10;;
70312;SDS011;57723;51.698;5.344;2022-11-15T17:33:01;3.45;;;1.20;;
70312;SDS011;57723;51.698;5.344;2022-11-15T17:35:53;2.17;;;1.00;;
70312;SDS011;57723;51.698;5.344;2022-11-15T17:38:25;3.35;;;1.23;;
70312;SDS011;57723;51.698;5.344;2022-11-15T17:41:00;3.28;;;1.10;;
70312;SDS011;57723;51.698;5.344;2022-11-15T17:43:26;3.60;;;1.15;;